createdAt,value
2022-11-16T00:00:26.451Z,7.84
2022-11-16T00:02:53.133Z,7.78
2022-11-16T00:05:23.056Z,7.76
2022-11-16T00:07:52.248Z,7.70
2022-11-16T00:10:18.892Z,7.70
2022-11-16T00:12:45.531Z,7.70
2022-11-16T00:15:12.121Z,7.70
2022-11-16T00:17:39.192Z,7.70
2022-11-16T00:20:06.514Z,7.65
2022-11-16T00:22:33.145Z,7.67
2022-11-16T00:24:59.776Z,7.59
2022-11-16T00:27:26.485Z,7.58
2022-11-16T00:29:53.561Z,7.48
2022-11-16T00:32:20.214Z,7.49
2022-11-16T00:34:47.015Z,7.41
2022-11-16T00:37:13.622Z,7.36
2022-11-16T00:39:40.263Z,7.27
2022-11-16T00:42:06.905Z,7.27
2022-11-16T00:44:33.615Z,7.28
2022-11-16T00:47:00.230Z,7.22
2022-11-16T00:49:26.921Z,7.11
2022-11-16T00:51:53.921Z,7.12
2022-11-16T00:54:22.287Z,7.08
2022-11-16T00:56:49.616Z,7.05
2022-11-16T00:59:16.560Z,6.94
2022-11-16T01:01:43.304Z,6.75
2022-11-16T01:04:09.996Z,6.84
2022-11-16T01:06:36.661Z,6.80
2022-11-16T01:09:03.492Z,6.77
2022-11-16T01:11:48.707Z,6.77
2022-11-16T01:14:15.486Z,6.72
2022-11-16T01:16:43.336Z,6.74
2022-11-16T01:19:10.303Z,6.70
2022-11-16T01:21:36.959Z,6.66
2022-11-16T01:24:03.979Z,6.66
2022-11-16T01:26:30.649Z,6.65
2022-11-16T01:28:59.647Z,6.70
2022-11-16T01:31:29.750Z,6.64
2022-11-16T01:33:57.438Z,6.61
2022-11-16T01:36:28.628Z,6.59
2022-11-16T01:38:57.853Z,6.56
2022-11-16T01:41:29.059Z,6.57
2022-11-16T01:44:07.431Z,6.59
2022-11-16T01:46:48.949Z,6.63
2022-11-16T01:49:20.821Z,6.65
2022-11-16T01:51:57.138Z,6.65
2022-11-16T01:54:26.394Z,6.70
2022-11-16T01:57:02.777Z,6.70
2022-11-16T01:59:44.344Z,6.67
2022-11-16T02:02:16.187Z,6.68
2022-11-16T02:04:44.419Z,6.70
2022-11-16T02:08:09.522Z,6.66
2022-11-16T02:10:46.971Z,6.63
2022-11-16T02:13:19.797Z,6.63
2022-11-16T02:16:01.946Z,6.64
2022-11-16T02:18:41.330Z,6.71
2022-11-16T02:21:13.750Z,6.69
2022-11-16T02:23:51.204Z,6.74
2022-11-16T02:27:15.286Z,6.74
2022-11-16T02:29:51.539Z,6.95
2022-11-16T02:32:38.177Z,6.75
2022-11-16T02:35:14.890Z,6.68
2022-11-16T02:37:54.536Z,6.72
2022-11-16T02:40:24.398Z,6.65
2022-11-16T02:42:53.149Z,6.71
2022-11-16T02:45:28.303Z,6.82
2022-11-16T02:48:01.510Z,6.78
2022-11-16T02:50:31.200Z,6.80
2022-11-16T02:52:57.873Z,6.94
2022-11-16T02:55:28.896Z,6.88
2022-11-16T02:58:01.064Z,6.93
2022-11-16T03:01:03.258Z,6.83
2022-11-16T03:03:52.514Z,6.88
2022-11-16T03:06:24.792Z,6.88
2022-11-16T03:09:09.230Z,6.82
2022-11-16T03:11:58.952Z,6.79
2022-11-16T03:14:50.446Z,6.81
2022-11-16T03:17:34.578Z,6.81
2022-11-16T03:20:04.513Z,6.81
2022-11-16T03:22:38.538Z,6.82
2022-11-16T03:25:06.657Z,6.78
2022-11-16T03:27:49.972Z,6.74
2022-11-16T03:30:23.978Z,6.73
2022-11-16T03:33:08.254Z,6.76
2022-11-16T03:35:50.360Z,6.77
2022-11-16T03:38:19.685Z,6.75
2022-11-16T03:40:47.819Z,6.73
2022-11-16T03:43:17.483Z,6.73
2022-11-16T03:45:45.685Z,6.74
2022-11-16T03:48:13.041Z,6.64
2022-11-16T03:50:42.462Z,6.60
2022-11-16T03:53:09.775Z,6.67
2022-11-16T03:55:38.169Z,6.62
2022-11-16T03:58:05.526Z,6.60
2022-11-16T04:00:33.026Z,6.61
2022-11-16T04:03:05.632Z,6.64
2022-11-16T04:05:50.873Z,6.63
2022-11-16T04:08:36.905Z,6.62
2022-11-16T04:11:22.916Z,6.63
2022-11-16T04:14:10.268Z,6.62
2022-11-16T04:16:58.637Z,6.62
2022-11-16T04:19:45.026Z,6.63
2022-11-16T04:22:48.385Z,6.60
2022-11-16T04:25:22.268Z,6.65
2022-11-16T04:28:07.952Z,6.58
2022-11-16T04:30:55.512Z,6.52
2022-11-16T04:33:40.888Z,6.46
2022-11-16T04:36:26.844Z,6.47
2022-11-16T04:38:53.757Z,6.50
2022-11-16T04:41:39.030Z,6.49
2022-11-16T04:44:05.792Z,6.48
2022-11-16T04:46:52.661Z,6.48
2022-11-16T04:49:19.458Z,6.49
2022-11-16T04:51:46.793Z,6.50
2022-11-16T04:54:13.826Z,6.52
2022-11-16T04:56:41.416Z,6.50
2022-11-16T04:59:08.262Z,6.50
2022-11-16T05:01:53.472Z,6.52
2022-11-16T05:04:20.302Z,6.50
2022-11-16T05:06:48.969Z,6.50
2022-11-16T05:09:15.949Z,6.51
2022-11-16T05:11:42.692Z,6.52
2022-11-16T05:14:10.806Z,6.48
2022-11-16T05:16:40.066Z,6.50
2022-11-16T05:19:25.309Z,6.49
2022-11-16T05:21:52.361Z,6.52
2022-11-16T05:24:34.555Z,6.50
2022-11-16T05:27:05.366Z,6.49
2022-11-16T05:29:33.154Z,6.50
2022-11-16T05:32:00.591Z,6.48
2022-11-16T05:34:28.055Z,6.51
2022-11-16T05:36:55.537Z,6.53
2022-11-16T05:39:22.619Z,6.43
2022-11-16T05:41:51.805Z,6.41
2022-11-16T05:44:18.702Z,6.36
2022-11-16T05:46:46.304Z,6.29
2022-11-16T05:49:13.768Z,6.33
2022-11-16T05:51:42.760Z,6.38
2022-11-16T05:54:21.678Z,6.38
2022-11-16T05:56:49.570Z,6.37
2022-11-16T05:59:20.121Z,6.33
2022-11-16T06:01:50.426Z,6.38
2022-11-16T06:04:24.003Z,6.42
2022-11-16T06:06:50.911Z,6.45
2022-11-16T06:09:21.929Z,6.47
2022-11-16T06:11:49.640Z,6.44
2022-11-16T06:14:16.400Z,6.48
2022-11-16T06:16:43.551Z,6.45
2022-11-16T06:19:11.060Z,6.54
2022-11-16T06:21:38.109Z,6.54
2022-11-16T06:24:09.531Z,6.55
2022-11-16T06:26:37.291Z,6.54
2022-11-16T06:29:04.973Z,6.55
2022-11-16T06:31:33.292Z,6.50
2022-11-16T06:34:01.880Z,6.55
2022-11-16T06:36:29.745Z,6.57
2022-11-16T06:39:01.062Z,6.64
2022-11-16T06:41:29.638Z,6.58
2022-11-16T06:43:56.491Z,6.57
2022-11-16T06:46:29.526Z,6.56
2022-11-16T06:48:57.078Z,6.54
2022-11-16T06:51:23.723Z,6.59
2022-11-16T06:53:50.647Z,6.61
2022-11-16T06:56:18.512Z,6.63
2022-11-16T06:58:57.276Z,6.69
2022-11-16T07:01:26.136Z,6.69
2022-11-16T07:03:58.402Z,6.73
2022-11-16T07:06:25.962Z,6.77
2022-11-16T07:08:52.987Z,6.79
2022-11-16T07:11:24.366Z,6.86
2022-11-16T07:13:51.817Z,6.92
2022-11-16T07:16:18.479Z,6.93
2022-11-16T07:18:52.126Z,7.03
2022-11-16T07:21:19.464Z,7.08
2022-11-16T07:23:46.176Z,7.09
2022-11-16T07:26:18.122Z,7.14
2022-11-16T07:28:52.968Z,7.11
2022-11-16T07:31:22.135Z,7.13
2022-11-16T07:34:08.818Z,7.18
2022-11-16T07:36:44.016Z,7.20
2022-11-16T07:39:11.044Z,7.20
2022-11-16T07:41:38.630Z,7.21
2022-11-16T07:44:25.776Z,7.23
2022-11-16T07:47:05.396Z,7.23
2022-11-16T07:49:33.748Z,7.19
2022-11-16T07:52:09.079Z,7.20
2022-11-16T07:54:43.764Z,7.24
2022-11-16T07:57:10.916Z,7.32
2022-11-16T07:59:40.532Z,7.38
2022-11-16T08:02:09.055Z,7.37
2022-11-16T08:04:38.785Z,7.37
2022-11-16T08:07:05.795Z,7.39
2022-11-16T08:09:39.565Z,7.39
2022-11-16T08:12:09.967Z,7.47
2022-11-16T08:14:36.724Z,7.48
2022-11-16T08:17:04.960Z,7.45
2022-11-16T08:19:32.133Z,7.48
2022-11-16T08:21:58.964Z,7.52
2022-11-16T08:24:28.722Z,7.47
2022-11-16T08:26:57.188Z,7.45
2022-11-16T08:29:23.912Z,7.47
2022-11-16T08:31:51.750Z,7.50
2022-11-16T08:34:20.117Z,7.52
2022-11-16T08:36:50.270Z,7.56
2022-11-16T08:39:19.158Z,7.62
2022-11-16T08:41:45.854Z,7.63
2022-11-16T08:44:12.895Z,7.66
2022-11-16T08:46:43.406Z,7.70
2022-11-16T08:49:22.593Z,7.74
2022-11-16T08:51:49.339Z,7.74
2022-11-16T08:54:16.030Z,7.75
2022-11-16T08:56:43.856Z,7.82
2022-11-16T08:59:11.307Z,7.85
2022-11-16T09:01:43.233Z,7.90
2022-11-16T09:04:09.872Z,7.91
2022-11-16T09:06:36.875Z,7.96
2022-11-16T09:09:04.248Z,8.04
2022-11-16T09:11:30.877Z,8.11
2022-11-16T09:13:57.645Z,8.04
2022-11-16T09:16:24.792Z,8.08
2022-11-16T09:18:52.254Z,8.09
2022-11-16T09:21:21.334Z,8.11
2022-11-16T09:23:49.000Z,8.09
2022-11-16T09:26:19.149Z,8.16
2022-11-16T09:28:45.831Z,8.16
2022-11-16T09:31:12.549Z,8.16
2022-11-16T09:33:39.279Z,8.19
2022-11-16T09:36:08.152Z,8.21
2022-11-16T09:42:07.340Z,8.24
2022-11-16T09:45:00.486Z,8.21
2022-11-16T09:47:38.918Z,8.20
2022-11-16T09:50:07.371Z,8.24
2022-11-16T09:52:41.931Z,8.21
2022-11-16T09:55:25.783Z,8.24
2022-11-16T09:57:56.093Z,8.26
2022-11-16T10:00:23.807Z,8.25
2022-11-16T10:03:06.788Z,8.27
2022-11-16T10:05:43.543Z,8.27
2022-11-16T10:08:43.174Z,8.30
2022-11-16T10:11:26.117Z,8.36
2022-11-16T10:14:16.989Z,8.41
2022-11-16T10:16:53.766Z,8.44
2022-11-16T10:19:52.359Z,8.46
2022-11-16T10:22:31.322Z,8.38
2022-11-16T10:24:59.201Z,8.47
2022-11-16T10:27:49.729Z,8.53
2022-11-16T10:30:21.821Z,8.42
2022-11-16T10:32:54.682Z,8.39
2022-11-16T10:35:40.013Z,8.35
2022-11-16T10:38:20.240Z,8.27
2022-11-16T10:40:53.319Z,8.32
2022-11-16T10:43:26.296Z,8.33
2022-11-16T10:46:17.862Z,8.39
2022-11-16T10:49:06.269Z,8.35
2022-11-16T10:51:33.343Z,8.36
2022-11-16T10:54:00.255Z,8.36
2022-11-16T10:56:37.333Z,8.33
2022-11-16T10:59:05.652Z,8.35
2022-11-16T11:01:44.024Z,8.36
2022-11-16T11:04:16.864Z,8.40
2022-11-16T11:06:44.719Z,8.41
2022-11-16T11:09:30.502Z,8.41
2022-11-16T11:12:34.431Z,8.54
2022-11-16T11:15:26.331Z,8.57
2022-11-16T11:18:11.833Z,8.65
2022-11-16T11:20:44.671Z,8.66
2022-11-16T11:23:23.800Z,8.58
2022-11-16T11:25:59.075Z,8.60
2022-11-16T11:28:38.414Z,8.60
2022-11-16T11:31:25.707Z,8.54
2022-11-16T11:33:56.353Z,8.57
2022-11-16T11:36:26.735Z,8.57
2022-11-16T11:39:07.487Z,8.51
2022-11-16T11:41:37.208Z,8.53
2022-11-16T11:44:06.897Z,8.52
2022-11-16T11:47:18.297Z,8.46
2022-11-16T11:49:23.131Z,8.44
2022-11-16T11:51:51.663Z,8.43
2022-11-16T11:54:24.283Z,8.43
2022-11-16T11:56:51.082Z,8.37
2022-11-16T11:59:21.938Z,8.36
2022-11-16T12:02:12.458Z,8.36
2022-11-16T12:05:02.779Z,8.37
2022-11-16T12:07:45.063Z,8.35
2022-11-16T12:10:29.977Z,8.35
2022-11-16T12:13:03.462Z,8.35
2022-11-16T12:15:39.647Z,8.34
2022-11-16T12:18:09.475Z,8.35
2022-11-16T12:20:45.129Z,8.40
2022-11-16T12:23:41.971Z,8.49
2022-11-16T12:26:27.824Z,8.50
2022-11-16T12:29:22.681Z,8.49
2022-11-16T12:32:01.501Z,8.46
2022-11-16T12:34:40.615Z,8.45
2022-11-16T12:37:24.788Z,8.43
2022-11-16T12:40:00.935Z,8.44
2022-11-16T12:42:52.053Z,8.39
2022-11-16T12:45:32.569Z,8.34
2022-11-16T12:48:19.677Z,8.31
2022-11-16T12:50:52.161Z,8.29
2022-11-16T12:53:40.304Z,8.30
2022-11-16T12:56:34.353Z,8.27
2022-11-16T12:59:28.763Z,8.35
2022-11-16T13:02:08.537Z,8.33
2022-11-16T13:04:45.619Z,8.31
2022-11-16T13:07:18.400Z,8.30
2022-11-16T13:09:51.325Z,8.23
2022-11-16T13:12:23.599Z,8.24
2022-11-16T13:14:53.873Z,8.19
2022-11-16T13:17:37.676Z,8.15
2022-11-16T13:20:18.475Z,8.16
2022-11-16T13:23:11.180Z,8.16
2022-11-16T13:25:48.916Z,8.12
2022-11-16T13:28:40.059Z,8.12
2022-11-16T13:31:39.642Z,8.26
2022-11-16T13:34:14.782Z,8.35
2022-11-16T13:36:46.205Z,8.48
2022-11-16T13:39:21.916Z,8.49
2022-11-16T13:41:51.775Z,8.38
2022-11-16T13:44:19.977Z,8.34
2022-11-16T13:46:56.534Z,8.32
2022-11-16T13:49:28.604Z,8.38
2022-11-16T13:52:21.987Z,8.41
2022-11-16T13:54:54.386Z,8.35
2022-11-16T13:57:29.957Z,8.31
2022-11-16T14:00:02.666Z,8.28
2022-11-16T14:02:35.165Z,8.34
2022-11-16T14:05:37.115Z,8.29
2022-11-16T14:08:18.977Z,8.32
2022-11-16T14:10:51.501Z,8.24
2022-11-16T14:13:30.285Z,8.24
2022-11-16T14:16:15.368Z,8.20
2022-11-16T14:18:43.673Z,8.21
2022-11-16T14:21:19.494Z,8.27
2022-11-16T14:24:07.672Z,8.23
2022-11-16T14:26:56.595Z,8.26
2022-11-16T14:29:34.998Z,8.23
2022-11-16T14:32:04.318Z,8.18
2022-11-16T14:34:42.333Z,8.18
2022-11-16T14:37:15.044Z,8.18
2022-11-16T14:39:43.661Z,8.14
2022-11-16T14:42:48.103Z,8.14
2022-11-16T14:45:28.060Z,8.11
2022-11-16T14:48:01.542Z,8.12
2022-11-16T14:50:30.204Z,8.14
2022-11-16T14:53:02.807Z,8.14
2022-11-16T14:55:29.548Z,8.23
2022-11-16T14:58:22.221Z,8.26
2022-11-16T15:00:58.187Z,8.25
2022-11-16T15:03:28.526Z,8.28
2022-11-16T15:06:03.361Z,8.22
2022-11-16T15:08:38.610Z,8.25
2022-11-16T15:11:20.516Z,8.26
2022-11-16T15:13:47.944Z,8.31
2022-11-16T15:16:19.828Z,8.29
2022-11-16T15:18:57.756Z,8.24
2022-11-16T15:21:25.126Z,8.20
2022-11-16T15:24:08.593Z,8.16
2022-11-16T15:26:39.107Z,8.17
2022-11-16T15:29:05.826Z,8.25
2022-11-16T15:31:34.433Z,8.26
2022-11-16T15:34:01.592Z,8.23
2022-11-16T15:36:38.143Z,8.28
2022-11-16T15:39:06.132Z,8.26
2022-11-16T15:41:34.020Z,8.26
2022-11-16T15:44:13.990Z,8.17
2022-11-16T15:46:44.593Z,8.18
2022-11-16T15:49:18.538Z,8.25
2022-11-16T15:51:45.240Z,8.20
2022-11-16T15:54:22.424Z,8.19
2022-11-16T15:56:50.142Z,8.15
2022-11-16T15:59:32.716Z,8.19
2022-11-16T16:01:59.534Z,8.14
2022-11-16T16:04:26.726Z,8.22
2022-11-16T16:07:05.047Z,8.20
2022-11-16T16:09:34.228Z,8.12
2022-11-16T16:12:17.787Z,8.10
2022-11-16T16:14:45.084Z,8.09
2022-11-16T16:17:21.441Z,8.06
2022-11-16T16:19:55.874Z,8.03
2022-11-16T16:22:33.112Z,8.16
2022-11-16T16:25:01.680Z,8.13
2022-11-16T16:27:30.780Z,8.07
2022-11-16T16:30:02.213Z,8.02
2022-11-16T16:32:34.242Z,7.97
2022-11-16T16:35:03.270Z,7.94
2022-11-16T16:37:31.896Z,7.93
2022-11-16T16:39:59.747Z,7.93
2022-11-16T16:42:26.430Z,7.94
2022-11-16T16:44:53.877Z,7.93
2022-11-16T16:47:20.906Z,7.93
2022-11-16T16:49:49.034Z,7.91
2022-11-16T16:52:15.924Z,7.92
2022-11-16T16:54:42.719Z,7.93
2022-11-16T16:57:17.029Z,7.91
2022-11-16T16:59:48.434Z,7.90
2022-11-16T17:02:16.606Z,7.88
2022-11-16T17:04:49.470Z,7.86
2022-11-16T17:07:16.511Z,7.85
2022-11-16T17:09:43.650Z,7.83
2022-11-16T17:12:11.063Z,7.85
2022-11-16T17:14:37.839Z,7.85
2022-11-16T17:17:04.527Z,7.82
2022-11-16T17:19:31.107Z,7.81
2022-11-16T17:21:58.402Z,7.77
2022-11-16T17:24:25.075Z,7.79
2022-11-16T17:26:51.774Z,7.81
2022-11-16T17:29:18.400Z,7.83
2022-11-16T17:31:47.299Z,7.82
2022-11-16T17:34:14.374Z,7.96
2022-11-16T17:36:41.976Z,7.96
2022-11-16T17:39:08.785Z,8.04
2022-11-16T17:41:35.548Z,7.90
2022-11-16T17:44:02.288Z,7.91
2022-11-16T17:46:29.200Z,7.84
2022-11-16T17:48:56.448Z,7.83
2022-11-16T17:51:25.277Z,7.80
2022-11-16T17:53:52.614Z,7.82
2022-11-16T17:56:23.306Z,7.82
2022-11-16T17:58:55.017Z,7.77
2022-11-16T18:01:22.670Z,7.76
2022-11-16T18:03:49.357Z,7.70
2022-11-16T18:06:21.363Z,7.77
2022-11-16T18:08:48.753Z,7.75
2022-11-16T18:11:23.541Z,7.71
2022-11-16T18:13:58.196Z,7.67
2022-11-16T18:16:28.442Z,7.65
2022-11-16T18:18:57.725Z,7.68
2022-11-16T18:21:25.051Z,7.66
2022-11-16T18:23:52.084Z,7.67
2022-11-16T18:26:21.162Z,7.59
2022-11-16T18:28:48.629Z,7.56
2022-11-16T18:31:18.490Z,7.55
2022-11-16T18:33:45.703Z,7.58
2022-11-16T18:36:12.647Z,7.59
2022-11-16T18:38:39.506Z,7.58
2022-11-16T18:41:12.079Z,7.60
2022-11-16T18:43:47.291Z,7.62
2022-11-16T18:46:14.017Z,7.66
2022-11-16T18:48:42.788Z,7.64
2022-11-16T18:51:10.895Z,7.60
2022-11-16T18:53:37.963Z,7.55
2022-11-16T18:56:05.308Z,7.50
2022-11-16T19:01:22.295Z,7.48
2022-11-16T19:03:49.248Z,7.48
2022-11-16T19:06:17.732Z,7.45
2022-11-16T19:08:47.789Z,7.48
2022-11-16T19:11:18.914Z,7.49
2022-11-16T19:13:45.572Z,7.50
2022-11-16T19:16:13.454Z,7.47
2022-11-16T19:18:40.688Z,7.49
2022-11-16T19:21:08.764Z,7.49
2022-11-16T19:23:40.119Z,7.51
2022-11-16T19:26:07.364Z,7.51
2022-11-16T19:28:40.813Z,7.53
2022-11-16T19:31:14.150Z,7.49
2022-11-16T19:33:41.346Z,7.51
2022-11-16T19:36:19.157Z,7.47
2022-11-16T19:38:47.385Z,7.56
2022-11-16T19:41:15.751Z,7.56
2022-11-16T19:43:42.822Z,7.69
2022-11-16T19:46:11.756Z,7.77
2022-11-16T19:48:39.312Z,7.80
2022-11-16T19:51:10.849Z,7.81
2022-11-16T19:53:38.413Z,7.80
2022-11-16T19:56:06.881Z,7.79
2022-11-16T19:58:38.349Z,7.79
2022-11-16T20:01:07.793Z,7.68
2022-11-16T20:03:34.989Z,7.62
2022-11-16T20:06:10.668Z,7.46
2022-11-16T20:08:38.950Z,7.41
2022-11-16T20:11:17.562Z,7.34
2022-11-16T20:13:44.260Z,7.26
2022-11-16T20:16:12.309Z,7.27
2022-11-16T20:18:40.662Z,7.28
2022-11-16T20:21:08.675Z,7.26
2022-11-16T20:23:36.110Z,7.21
2022-11-16T20:26:08.281Z,7.19
2022-11-16T20:28:39.937Z,7.13
2022-11-16T20:31:17.624Z,7.23
2022-11-16T20:33:59.141Z,7.18
2022-11-16T20:36:28.078Z,7.14
2022-11-16T20:38:56.488Z,7.02
2022-11-16T20:41:26.142Z,6.92
2022-11-16T20:43:54.944Z,6.96
2022-11-16T20:46:23.783Z,6.98
2022-11-16T20:48:50.516Z,6.94
2022-11-16T20:51:19.505Z,6.83
2022-11-16T20:53:47.981Z,6.82
2022-11-16T20:56:15.998Z,6.81
2022-11-16T20:58:43.259Z,6.78
2022-11-16T21:01:18.963Z,6.83
2022-11-16T21:03:46.437Z,6.83
2022-11-16T21:06:14.297Z,6.84
2022-11-16T21:08:41.729Z,6.86
2022-11-16T21:11:13.773Z,6.88
2022-11-16T21:13:59.556Z,6.91
2022-11-16T21:16:26.782Z,6.91
2022-11-16T21:18:54.772Z,6.91
2022-11-16T21:21:22.074Z,6.86
2022-11-16T21:23:51.837Z,6.88
2022-11-16T21:26:21.498Z,6.84
2022-11-16T21:28:48.218Z,6.76
2022-11-16T21:31:18.650Z,6.70
2022-11-16T21:33:46.029Z,6.75
2022-11-16T21:36:17.966Z,6.76
2022-11-16T21:38:44.899Z,6.78
2022-11-16T21:41:12.776Z,6.86
2022-11-16T21:43:42.696Z,6.93
2022-11-16T21:46:14.848Z,6.95
2022-11-16T21:48:42.046Z,6.92
2022-11-16T21:51:14.236Z,6.84
2022-11-16T21:53:41.040Z,6.77
2022-11-16T21:56:12.485Z,6.77
2022-11-16T21:58:40.123Z,6.76
2022-11-16T22:01:06.941Z,6.78
2022-11-16T22:03:34.426Z,6.81
2022-11-16T22:06:22.433Z,6.80
2022-11-16T22:08:49.494Z,6.84
2022-11-16T22:11:17.045Z,6.78
2022-11-16T22:13:44.217Z,6.83
2022-11-16T22:16:12.961Z,6.82
2022-11-16T22:18:39.691Z,6.82
2022-11-16T22:21:07.439Z,6.82
2022-11-16T22:23:35.071Z,6.81
2022-11-16T22:26:10.226Z,6.82
2022-11-16T22:28:37.649Z,6.84
2022-11-16T22:31:06.698Z,6.83
2022-11-16T22:33:34.462Z,6.84
2022-11-16T22:36:01.503Z,6.83
2022-11-16T22:38:28.384Z,6.85
2022-11-16T22:41:00.491Z,6.86
2022-11-16T22:43:34.261Z,6.84
2022-11-16T22:46:05.533Z,6.85
2022-11-16T22:48:37.420Z,6.86
2022-11-16T22:51:15.261Z,6.83
2022-11-16T22:53:42.382Z,6.83
2022-11-16T22:56:10.216Z,6.82
2022-11-16T22:58:38.263Z,6.79
2022-11-16T23:01:11.421Z,6.79
2022-11-16T23:03:38.836Z,6.73
2022-11-16T23:06:09.154Z,6.69
2022-11-16T23:08:37.562Z,6.65
2022-11-16T23:11:30.097Z,6.67
2022-11-16T23:14:15.812Z,6.66
2022-11-16T23:16:46.647Z,6.69
2022-11-16T23:19:36.719Z,6.70
2022-11-16T23:22:24.368Z,6.73
2022-11-16T23:25:10.243Z,6.76
2022-11-16T23:27:49.149Z,6.76
2022-11-16T23:30:16.693Z,6.78
2022-11-16T23:32:43.530Z,6.80
2022-11-16T23:35:11.160Z,6.77
2022-11-16T23:37:59.165Z,6.78
2022-11-16T23:40:34.448Z,6.84
2022-11-16T23:43:20.458Z,6.83
2022-11-16T23:45:47.501Z,6.85
2022-11-16T23:48:16.280Z,6.91
2022-11-16T23:50:44.256Z,6.81
2022-11-16T23:53:20.588Z,6.77
2022-11-16T23:55:47.677Z,6.81
2022-11-16T23:58:14.972Z,6.81
